TJSJ/SJU METAR and TAF weather

Enter ICAO airport designator
Station Type Date Time Source
TJSJ METAR 2021/04/17 01:56 UTC NOAA

TJSJ 170156Z 10010KT 10SM SCT028 SCT035 26/23 A3001 RMK AO2 SLP160 SHRA DSNT SE T02610233


Station Type Date Time Source
TJSJ Decoded METAR 2021/04/17 01:56 UTC NOAA

San Juan, Luis Munoz Marin International Airport, PR, United States (TJSJ) 18-27N 066-00W
Apr 16, 2021 - 09:56 PM EDT / 2021.04.17 0156 UTC
Wind: from the E (100 degrees) at 12 MPH (10 KT):0
Visibility: 10 mile(s):0
Sky conditions: partly cloudy
Temperature: 79.0 F (26.1 C)
Dew Point: 73.9 F (23.3 C)
Relative Humidity: 84%
Pressure (altimeter): 30.01 in. Hg (1016 hPa)
ob: TJSJ 170156Z 10010KT 10SM SCT028 SCT035 26/23 A3001 RMK AO2 SLP160 SHRA DSNT SE T02610233
cycle: 2

Station Type Date Time Source
TJSJ TAF 2021/04/17 00:06 UTC NOAA

TAF TJSJ 170001Z 1700/1724 09010KT P6SM VCSH SCT025 SCT050
FM170200 11005KT P6SM FEW035 FEW070
FM170800 VRB04KT P6SM VCSH SCT025 SCT040
FM171400 07012KT P6SM FEW030 FEW060

Example: see airport list